sensor_id;sensor_type;location;lat;lon;timestamp;temperature;humidity
5508;DHT22;2776;51.046;6.772;2022-12-01T00:00:07;7.50;99.90
5508;DHT22;2776;51.046;6.772;2022-12-01T00:02:34;7.50;99.90
5508;DHT22;2776;51.046;6.772;2022-12-01T00:05:01;7.50;99.90
5508;DHT22;2776;51.046;6.772;2022-12-01T00:07:27;7.40;99.90
5508;DHT22;2776;51.046;6.772;2022-12-01T00:09:55;7.50;99.90
5508;DHT22;2776;51.046;6.772;2022-12-01T00:12:40;7.40;99.90
5508;DHT22;2776;51.046;6.772;2022-12-01T00:15:08;7.50;99.90
5508;DHT22;2776;51.046;6.772;2022-12-01T00:17:35;7.40;99.90
5508;DHT22;2776;51.046;6.772;2022-12-01T00:20:02;7.40;99.90
5508;DHT22;2776;51.046;6.772;2022-12-01T00:22:29;7.40;99.90
5508;DHT22;2776;51.046;6.772;2022-12-01T00:24:57;7.40;99.90
5508;DHT22;2776;51.046;6.772;2022-12-01T00:27:24;7.50;99.90
5508;DHT22;2776;51.046;6.772;2022-12-01T00:29:51;7.40;99.90
5508;DHT22;2776;51.046;6.772;2022-12-01T00:32:17;7.40;99.90
5508;DHT22;2776;51.046;6.772;2022-12-01T00:34:44;7.30;99.90
5508;DHT22;2776;51.046;6.772;2022-12-01T00:37:11;7.30;99.90
5508;DHT22;2776;51.046;6.772;2022-12-01T00:39:37;7.40;99.90
5508;DHT22;2776;51.046;6.772;2022-12-01T00:42:06;7.40;99.90
5508;DHT22;2776;51.046;6.772;2022-12-01T00:44:32;7.40;99.90
5508;DHT22;2776;51.046;6.772;2022-12-01T00:46:59;7.40;99.90
5508;DHT22;2776;51.046;6.772;2022-12-01T00:49:26;7.30;99.90
5508;DHT22;2776;51.046;6.772;2022-12-01T00:51:52;7.40;99.90
5508;DHT22;2776;51.046;6.772;2022-12-01T00:54:19;7.40;99.90
5508;DHT22;2776;51.046;6.772;2022-12-01T00:56:46;7.40;99.90
5508;DHT22;2776;51.046;6.772;2022-12-01T00:59:14;7.40;99.90
5508;DHT22;2776;51.046;6.772;2022-12-01T01:01:41;7.40;99.90
5508;DHT22;2776;51.046;6.772;2022-12-01T01:04:07;7.40;99.90
5508;DHT22;2776;51.046;6.772;2022-12-01T01:06:34;7.40;99.90
5508;DHT22;2776;51.046;6.772;2022-12-01T01:09:01;7.30;99.90
5508;DHT22;2776;51.046;6.772;2022-12-01T01:11:27;7.30;99.90
5508;DHT22;2776;51.046;6.772;2022-12-01T01:13:54;7.30;99.90
5508;DHT22;2776;51.046;6.772;2022-12-01T01:16:22;7.30;99.90
5508;DHT22;2776;51.046;6.772;2022-12-01T01:18:49;7.30;99.90
5508;DHT22;2776;51.046;6.772;2022-12-01T01:21:18;7.40;99.90
5508;DHT22;2776;51.046;6.772;2022-12-01T01:23:46;7.40;99.90
5508;DHT22;2776;51.046;6.772;2022-12-01T01:26:15;7.40;99.90
5508;DHT22;2776;51.046;6.772;2022-12-01T01:28:43;7.40;99.90
5508;DHT22;2776;51.046;6.772;2022-12-01T01:31:11;7.50;99.90
5508;DHT22;2776;51.046;6.772;2022-12-01T01:33:39;7.50;99.90
5508;DHT22;2776;51.046;6.772;2022-12-01T01:36:06;7.50;99.90
5508;DHT22;2776;51.046;6.772;2022-12-01T01:38:34;7.50;99.90
5508;DHT22;2776;51.046;6.772;2022-12-01T01:41:01;7.40;99.90
5508;DHT22;2776;51.046;6.772;2022-12-01T01:43:40;7.50;99.90
5508;DHT22;2776;51.046;6.772;2022-12-01T01:46:10;7.50;99.90
5508;DHT22;2776;51.046;6.772;2022-12-01T01:48:37;7.50;99.90
5508;DHT22;2776;51.046;6.772;2022-12-01T01:51:07;7.40;99.90
5508;DHT22;2776;51.046;6.772;2022-12-01T01:53:35;7.30;99.90
5508;DHT22;2776;51.046;6.772;2022-12-01T01:56:03;7.30;99.90
5508;DHT22;2776;51.046;6.772;2022-12-01T01:58:31;7.40;99.90
5508;DHT22;2776;51.046;6.772;2022-12-01T02:00:59;7.40;99.90
5508;DHT22;2776;51.046;6.772;2022-12-01T02:03:27;7.40;99.90
5508;DHT22;2776;51.046;6.772;2022-12-01T02:05:54;7.40;99.90
5508;DHT22;2776;51.046;6.772;2022-12-01T02:08:23;7.50;99.90
5508;DHT22;2776;51.046;6.772;2022-12-01T02:11:03;7.40;99.90
5508;DHT22;2776;51.046;6.772;2022-12-01T02:13:37;7.40;99.90
5508;DHT22;2776;51.046;6.772;2022-12-01T02:16:11;7.40;99.90
5508;DHT22;2776;51.046;6.772;2022-12-01T02:18:47;7.30;99.90
5508;DHT22;2776;51.046;6.772;2022-12-01T02:21:35;7.30;99.90
5508;DHT22;2776;51.046;6.772;2022-12-01T02:24:34;7.30;99.90
5508;DHT22;2776;51.046;6.772;2022-12-01T02:27:07;7.30;99.90
5508;DHT22;2776;51.046;6.772;2022-12-01T02:30:03;7.30;99.90
5508;DHT22;2776;51.046;6.772;2022-12-01T02:32:42;7.30;99.90
5508;DHT22;2776;51.046;6.772;2022-12-01T02:35:14;7.30;99.90
5508;DHT22;2776;51.046;6.772;2022-12-01T02:37:47;7.40;99.90
5508;DHT22;2776;51.046;6.772;2022-12-01T02:40:20;7.40;99.90
5508;DHT22;2776;51.046;6.772;2022-12-01T02:42:54;7.40;99.90
5508;DHT22;2776;51.046;6.772;2022-12-01T02:45:34;7.30;99.90
5508;DHT22;2776;51.046;6.772;2022-12-01T02:48:06;7.40;99.90
5508;DHT22;2776;51.046;6.772;2022-12-01T02:50:34;7.30;99.90
5508;DHT22;2776;51.046;6.772;2022-12-01T02:53:05;7.30;99.90
5508;DHT22;2776;51.046;6.772;2022-12-01T02:55:33;7.40;99.90
5508;DHT22;2776;51.046;6.772;2022-12-01T02:58:00;7.40;99.90
5508;DHT22;2776;51.046;6.772;2022-12-01T03:00:29;7.40;99.90
5508;DHT22;2776;51.046;6.772;2022-12-01T03:03:13;7.40;99.90
5508;DHT22;2776;51.046;6.772;2022-12-01T03:05:49;7.40;99.90
5508;DHT22;2776;51.046;6.772;2022-12-01T03:08:23;7.50;99.90
5508;DHT22;2776;51.046;6.772;2022-12-01T03:10:54;7.50;99.90
5508;DHT22;2776;51.046;6.772;2022-12-01T03:13:32;7.50;99.90
5508;DHT22;2776;51.046;6.772;2022-12-01T03:16:02;7.50;99.90
5508;DHT22;2776;51.046;6.772;2022-12-01T03:18:37;7.40;99.90
5508;DHT22;2776;51.046;6.772;2022-12-01T03:21:08;7.40;99.90
5508;DHT22;2776;51.046;6.772;2022-12-01T03:23:39;7.40;99.90
5508;DHT22;2776;51.046;6.772;2022-12-01T03:26:08;7.40;99.90
5508;DHT22;2776;51.046;6.772;2022-12-01T03:28:41;7.40;99.90
5508;DHT22;2776;51.046;6.772;2022-12-01T03:31:12;7.40;99.90
5508;DHT22;2776;51.046;6.772;2022-12-01T03:33:45;7.40;99.90
5508;DHT22;2776;51.046;6.772;2022-12-01T03:36:19;7.40;99.90
5508;DHT22;2776;51.046;6.772;2022-12-01T03:38:50;7.30;99.90
5508;DHT22;2776;51.046;6.772;2022-12-01T03:41:21;7.30;99.90
5508;DHT22;2776;51.046;6.772;2022-12-01T03:43:54;7.30;99.90
5508;DHT22;2776;51.046;6.772;2022-12-01T03:46:30;7.30;99.90
5508;DHT22;2776;51.046;6.772;2022-12-01T03:48:59;7.30;99.90
5508;DHT22;2776;51.046;6.772;2022-12-01T03:51:33;7.20;99.90
5508;DHT22;2776;51.046;6.772;2022-12-01T03:54:07;7.20;99.90
5508;DHT22;2776;51.046;6.772;2022-12-01T03:56:39;7.20;99.90
5508;DHT22;2776;51.046;6.772;2022-12-01T03:59:09;7.20;99.90
5508;DHT22;2776;51.046;6.772;2022-12-01T04:01:36;7.20;99.90
5508;DHT22;2776;51.046;6.772;2022-12-01T04:04:07;7.20;99.90
5508;DHT22;2776;51.046;6.772;2022-12-01T04:06:36;7.20;99.90
5508;DHT22;2776;51.046;6.772;2022-12-01T04:09:03;7.10;99.90
5508;DHT22;2776;51.046;6.772;2022-12-01T04:11:30;7.10;99.90
5508;DHT22;2776;51.046;6.772;2022-12-01T04:14:14;7.10;99.90
5508;DHT22;2776;51.046;6.772;2022-12-01T04:16:41;7.10;99.90
5508;DHT22;2776;51.046;6.772;2022-12-01T04:19:09;7.10;99.90
5508;DHT22;2776;51.046;6.772;2022-12-01T04:21:36;7.20;99.90
5508;DHT22;2776;51.046;6.772;2022-12-01T04:24:04;7.20;99.90
5508;DHT22;2776;51.046;6.772;2022-12-01T04:26:32;7.10;99.90
5508;DHT22;2776;51.046;6.772;2022-12-01T04:29:00;7.10;99.90
5508;DHT22;2776;51.046;6.772;2022-12-01T04:31:28;7.10;99.90
5508;DHT22;2776;51.046;6.772;2022-12-01T04:33:55;7.10;99.90
5508;DHT22;2776;51.046;6.772;2022-12-01T04:36:24;7.00;99.90
5508;DHT22;2776;51.046;6.772;2022-12-01T04:38:51;7.00;99.90
5508;DHT22;2776;51.046;6.772;2022-12-01T04:41:18;7.00;99.90
5508;DHT22;2776;51.046;6.772;2022-12-01T04:43:45;6.90;99.90
5508;DHT22;2776;51.046;6.772;2022-12-01T04:46:12;6.90;99.90
5508;DHT22;2776;51.046;6.772;2022-12-01T04:48:40;7.00;99.90
5508;DHT22;2776;51.046;6.772;2022-12-01T04:51:08;7.00;99.90
5508;DHT22;2776;51.046;6.772;2022-12-01T04:53:36;7.00;99.90
5508;DHT22;2776;51.046;6.772;2022-12-01T04:56:03;7.00;99.90
5508;DHT22;2776;51.046;6.772;2022-12-01T04:58:31;7.00;99.90
5508;DHT22;2776;51.046;6.772;2022-12-01T05:01:00;7.00;99.90
5508;DHT22;2776;51.046;6.772;2022-12-01T05:03:27;7.00;99.90
5508;DHT22;2776;51.046;6.772;2022-12-01T05:06:00;7.10;99.90
5508;DHT22;2776;51.046;6.772;2022-12-01T05:08:27;6.90;99.90
5508;DHT22;2776;51.046;6.772;2022-12-01T05:10:55;7.00;99.90
5508;DHT22;2776;51.046;6.772;2022-12-01T05:13:22;7.00;99.90
5508;DHT22;2776;51.046;6.772;2022-12-01T05:15:48;7.00;99.90
5508;DHT22;2776;51.046;6.772;2022-12-01T05:18:15;7.00;99.90
5508;DHT22;2776;51.046;6.772;2022-12-01T05:20:42;7.00;99.90
5508;DHT22;2776;51.046;6.772;2022-12-01T05:23:23;7.00;99.90
5508;DHT22;2776;51.046;6.772;2022-12-01T05:25:50;7.00;99.90
5508;DHT22;2776;51.046;6.772;2022-12-01T05:28:18;7.00;99.90
5508;DHT22;2776;51.046;6.772;2022-12-01T05:30:45;7.00;99.90
5508;DHT22;2776;51.046;6.772;2022-12-01T05:33:12;7.00;99.90
5508;DHT22;2776;51.046;6.772;2022-12-01T05:35:38;7.00;99.90
5508;DHT22;2776;51.046;6.772;2022-12-01T05:38:05;7.00;99.90
5508;DHT22;2776;51.046;6.772;2022-12-01T05:40:32;7.00;99.90
5508;DHT22;2776;51.046;6.772;2022-12-01T05:43:00;7.00;99.90
5508;DHT22;2776;51.046;6.772;2022-12-01T05:45:28;7.10;99.90
5508;DHT22;2776;51.046;6.772;2022-12-01T05:47:55;7.10;99.90
5508;DHT22;2776;51.046;6.772;2022-12-01T05:50:23;7.00;99.90
5508;DHT22;2776;51.046;6.772;2022-12-01T05:52:50;7.10;99.90
5508;DHT22;2776;51.046;6.772;2022-12-01T05:55:17;7.00;99.90
5508;DHT22;2776;51.046;6.772;2022-12-01T05:57:44;7.00;99.90
5508;DHT22;2776;51.046;6.772;2022-12-01T06:00:12;7.00;99.90
5508;DHT22;2776;51.046;6.772;2022-12-01T06:02:41;7.00;99.90
5508;DHT22;2776;51.046;6.772;2022-12-01T06:05:08;7.00;99.90
5508;DHT22;2776;51.046;6.772;2022-12-01T06:07:35;7.00;99.90
5508;DHT22;2776;51.046;6.772;2022-12-01T06:10:05;7.00;99.90
5508;DHT22;2776;51.046;6.772;2022-12-01T06:12:32;7.00;99.90
5508;DHT22;2776;51.046;6.772;2022-12-01T06:14:59;7.00;99.90
5508;DHT22;2776;51.046;6.772;2022-12-01T06:17:26;7.00;99.90
5508;DHT22;2776;51.046;6.772;2022-12-01T06:19:54;7.00;99.90
5508;DHT22;2776;51.046;6.772;2022-12-01T06:22:21;7.00;99.90
5508;DHT22;2776;51.046;6.772;2022-12-01T06:24:48;7.00;99.90
5508;DHT22;2776;51.046;6.772;2022-12-01T06:27:14;7.00;99.90
5508;DHT22;2776;51.046;6.772;2022-12-01T06:29:41;6.90;99.90
5508;DHT22;2776;51.046;6.772;2022-12-01T06:32:08;6.90;99.90
5508;DHT22;2776;51.046;6.772;2022-12-01T06:34:35;6.90;99.90
5508;DHT22;2776;51.046;6.772;2022-12-01T06:37:03;6.80;99.90
5508;DHT22;2776;51.046;6.772;2022-12-01T06:39:30;6.90;99.90
5508;DHT22;2776;51.046;6.772;2022-12-01T06:41:56;7.00;99.90
5508;DHT22;2776;51.046;6.772;2022-12-01T06:44:23;7.00;99.90
5508;DHT22;2776;51.046;6.772;2022-12-01T06:46:50;7.00;99.90
5508;DHT22;2776;51.046;6.772;2022-12-01T06:49:18;7.00;99.90
5508;DHT22;2776;51.046;6.772;2022-12-01T06:51:45;7.00;99.90
5508;DHT22;2776;51.046;6.772;2022-12-01T06:54:13;7.00;99.90
5508;DHT22;2776;51.046;6.772;2022-12-01T06:56:42;7.00;99.90
5508;DHT22;2776;51.046;6.772;2022-12-01T06:59:10;7.00;99.90
5508;DHT22;2776;51.046;6.772;2022-12-01T07:01:37;7.00;99.90
5508;DHT22;2776;51.046;6.772;2022-12-01T07:04:03;7.00;99.90
5508;DHT22;2776;51.046;6.772;2022-12-01T07:06:30;6.90;99.90
5508;DHT22;2776;51.046;6.772;2022-12-01T07:08:57;6.90;99.90
5508;DHT22;2776;51.046;6.772;2022-12-01T07:11:26;7.00;99.90
5508;DHT22;2776;51.046;6.772;2022-12-01T07:13:54;6.90;99.90
5508;DHT22;2776;51.046;6.772;2022-12-01T07:16:21;7.00;99.90
5508;DHT22;2776;51.046;6.772;2022-12-01T07:18:48;7.00;99.90
5508;DHT22;2776;51.046;6.772;2022-12-01T07:21:15;7.00;99.90
5508;DHT22;2776;51.046;6.772;2022-12-01T07:23:42;7.00;99.90
5508;DHT22;2776;51.046;6.772;2022-12-01T07:26:11;6.90;99.90
5508;DHT22;2776;51.046;6.772;2022-12-01T07:28:39;6.90;99.90
5508;DHT22;2776;51.046;6.772;2022-12-01T07:31:07;6.90;99.90
5508;DHT22;2776;51.046;6.772;2022-12-01T07:33:34;6.90;99.90
5508;DHT22;2776;51.046;6.772;2022-12-01T07:36:02;6.90;99.90
5508;DHT22;2776;51.046;6.772;2022-12-01T07:38:29;7.00;99.90
5508;DHT22;2776;51.046;6.772;2022-12-01T07:41:01;7.00;99.90
5508;DHT22;2776;51.046;6.772;2022-12-01T07:43:29;7.10;99.90
5508;DHT22;2776;51.046;6.772;2022-12-01T07:46:02;7.10;99.90
5508;DHT22;2776;51.046;6.772;2022-12-01T07:48:29;7.20;99.90
5508;DHT22;2776;51.046;6.772;2022-12-01T07:50:56;7.20;99.90
5508;DHT22;2776;51.046;6.772;2022-12-01T07:53:23;7.20;99.90
5508;DHT22;2776;51.046;6.772;2022-12-01T07:55:50;7.20;99.90
5508;DHT22;2776;51.046;6.772;2022-12-01T07:58:16;7.20;99.90
5508;DHT22;2776;51.046;6.772;2022-12-01T08:00:43;7.10;99.90
5508;DHT22;2776;51.046;6.772;2022-12-01T08:03:11;7.10;99.90
5508;DHT22;2776;51.046;6.772;2022-12-01T08:05:38;7.10;99.90
5508;DHT22;2776;51.046;6.772;2022-12-01T08:08:05;7.20;99.90
5508;DHT22;2776;51.046;6.772;2022-12-01T08:10:32;7.10;99.90
5508;DHT22;2776;51.046;6.772;2022-12-01T08:12:59;7.10;99.90
5508;DHT22;2776;51.046;6.772;2022-12-01T08:15:26;7.20;99.90
5508;DHT22;2776;51.046;6.772;2022-12-01T08:17:52;7.20;99.90
5508;DHT22;2776;51.046;6.772;2022-12-01T08:20:21;7.20;99.90
5508;DHT22;2776;51.046;6.772;2022-12-01T08:22:47;7.20;99.90
5508;DHT22;2776;51.046;6.772;2022-12-01T08:25:14;7.20;99.90
5508;DHT22;2776;51.046;6.772;2022-12-01T08:27:41;7.20;99.90
5508;DHT22;2776;51.046;6.772;2022-12-01T08:30:09;7.20;99.90
5508;DHT22;2776;51.046;6.772;2022-12-01T08:32:35;7.10;99.90
5508;DHT22;2776;51.046;6.772;2022-12-01T08:35:02;7.10;99.90
5508;DHT22;2776;51.046;6.772;2022-12-01T08:37:30;7.10;99.90
5508;DHT22;2776;51.046;6.772;2022-12-01T08:39:57;7.10;99.90
5508;DHT22;2776;51.046;6.772;2022-12-01T08:42:24;7.00;99.90
5508;DHT22;2776;51.046;6.772;2022-12-01T08:44:51;7.10;99.90
5508;DHT22;2776;51.046;6.772;2022-12-01T08:47:17;7.10;99.90
5508;DHT22;2776;51.046;6.772;2022-12-01T08:49:44;7.20;99.90
5508;DHT22;2776;51.046;6.772;2022-12-01T08:52:11;7.20;99.90
5508;DHT22;2776;51.046;6.772;2022-12-01T08:54:39;7.30;99.90
5508;DHT22;2776;51.046;6.772;2022-12-01T08:57:06;7.30;99.90
5508;DHT22;2776;51.046;6.772;2022-12-01T08:59:33;7.30;99.90
5508;DHT22;2776;51.046;6.772;2022-12-01T09:02:00;7.30;99.90
5508;DHT22;2776;51.046;6.772;2022-12-01T09:04:27;7.30;99.90
5508;DHT22;2776;51.046;6.772;2022-12-01T09:06:55;7.40;99.90
5508;DHT22;2776;51.046;6.772;2022-12-01T09:09:25;7.40;99.90
5508;DHT22;2776;51.046;6.772;2022-12-01T09:11:53;7.40;99.90
5508;DHT22;2776;51.046;6.772;2022-12-01T09:14:21;7.40;99.90
5508;DHT22;2776;51.046;6.772;2022-12-01T09:16:49;7.40;99.90
5508;DHT22;2776;51.046;6.772;2022-12-01T09:19:17;7.40;99.90
5508;DHT22;2776;51.046;6.772;2022-12-01T09:21:44;7.40;99.90
5508;DHT22;2776;51.046;6.772;2022-12-01T09:24:13;7.40;99.90
5508;DHT22;2776;51.046;6.772;2022-12-01T09:26:41;7.30;99.90
5508;DHT22;2776;51.046;6.772;2022-12-01T09:29:10;7.30;99.90
5508;DHT22;2776;51.046;6.772;2022-12-01T09:31:38;7.30;99.90
5508;DHT22;2776;51.046;6.772;2022-12-01T09:34:07;7.30;99.90
5508;DHT22;2776;51.046;6.772;2022-12-01T09:36:35;7.30;99.90
5508;DHT22;2776;51.046;6.772;2022-12-01T09:39:03;7.30;99.90
5508;DHT22;2776;51.046;6.772;2022-12-01T09:41:34;7.30;99.90
5508;DHT22;2776;51.046;6.772;2022-12-01T09:44:05;7.30;99.90
5508;DHT22;2776;51.046;6.772;2022-12-01T09:46:42;7.30;99.90
5508;DHT22;2776;51.046;6.772;2022-12-01T09:49:16;7.30;99.90
5508;DHT22;2776;51.046;6.772;2022-12-01T09:51:44;7.30;99.90
5508;DHT22;2776;51.046;6.772;2022-12-01T09:54:12;7.30;99.90
5508;DHT22;2776;51.046;6.772;2022-12-01T09:56:43;7.30;99.90
5508;DHT22;2776;51.046;6.772;2022-12-01T09:59:20;7.30;99.90
5508;DHT22;2776;51.046;6.772;2022-12-01T10:01:52;7.40;99.90
5508;DHT22;2776;51.046;6.772;2022-12-01T10:04:25;7.40;99.90
5508;DHT22;2776;51.046;6.772;2022-12-01T10:06:58;7.40;99.90
5508;DHT22;2776;51.046;6.772;2022-12-01T10:09:30;7.30;99.90
5508;DHT22;2776;51.046;6.772;2022-12-01T10:12:05;7.40;99.90
5508;DHT22;2776;51.046;6.772;2022-12-01T10:14:35;7.50;99.90
5508;DHT22;2776;51.046;6.772;2022-12-01T10:17:12;7.60;99.90
5508;DHT22;2776;51.046;6.772;2022-12-01T10:19:54;7.60;99.90
5508;DHT22;2776;51.046;6.772;2022-12-01T10:25:21;7.70;99.90
5508;DHT22;2776;51.046;6.772;2022-12-01T10:27:59;7.80;99.90
5508;DHT22;2776;51.046;6.772;2022-12-01T10:30:29;7.80;99.90
5508;DHT22;2776;51.046;6.772;2022-12-01T10:33:02;7.70;99.90
5508;DHT22;2776;51.046;6.772;2022-12-01T10:35:32;7.80;99.90
5508;DHT22;2776;51.046;6.772;2022-12-01T10:38:03;7.70;99.90
5508;DHT22;2776;51.046;6.772;2022-12-01T10:40:32;7.70;99.90
5508;DHT22;2776;51.046;6.772;2022-12-01T10:43:00;7.70;99.90
5508;DHT22;2776;51.046;6.772;2022-12-01T10:45:29;7.70;99.90
5508;DHT22;2776;51.046;6.772;2022-12-01T10:48:10;7.70;99.90
5508;DHT22;2776;51.046;6.772;2022-12-01T10:50:40;7.70;99.90
5508;DHT22;2776;51.046;6.772;2022-12-01T10:53:24;7.60;99.90
5508;DHT22;2776;51.046;6.772;2022-12-01T10:55:59;7.70;99.90
5508;DHT22;2776;51.046;6.772;2022-12-01T10:58:28;7.60;99.90
5508;DHT22;2776;51.046;6.772;2022-12-01T11:00:57;7.80;99.90
5508;DHT22;2776;51.046;6.772;2022-12-01T11:03:27;7.80;99.90
5508;DHT22;2776;51.046;6.772;2022-12-01T11:05:56;7.80;99.90
5508;DHT22;2776;51.046;6.772;2022-12-01T11:08:32;7.90;99.90
5508;DHT22;2776;51.046;6.772;2022-12-01T11:11:01;7.80;99.90
5508;DHT22;2776;51.046;6.772;2022-12-01T11:13:30;7.80;99.90
5508;DHT22;2776;51.046;6.772;2022-12-01T11:15:58;7.70;99.90
5508;DHT22;2776;51.046;6.772;2022-12-01T11:18:31;7.70;99.90
5508;DHT22;2776;51.046;6.772;2022-12-01T11:21:07;7.70;99.90
5508;DHT22;2776;51.046;6.772;2022-12-01T11:23:36;7.60;99.90
5508;DHT22;2776;51.046;6.772;2022-12-01T11:26:12;7.50;99.90
5508;DHT22;2776;51.046;6.772;2022-12-01T11:28:49;7.50;99.90
5508;DHT22;2776;51.046;6.772;2022-12-01T11:31:17;7.50;99.90
5508;DHT22;2776;51.046;6.772;2022-12-01T11:33:48;7.50;99.90
5508;DHT22;2776;51.046;6.772;2022-12-01T11:36:20;7.60;99.90
5508;DHT22;2776;51.046;6.772;2022-12-01T11:38:47;7.60;99.90
5508;DHT22;2776;51.046;6.772;2022-12-01T11:41:26;7.60;99.90
5508;DHT22;2776;51.046;6.772;2022-12-01T11:43:53;7.70;99.90
5508;DHT22;2776;51.046;6.772;2022-12-01T11:46:29;7.80;99.90
5508;DHT22;2776;51.046;6.772;2022-12-01T11:48:58;7.80;99.90
5508;DHT22;2776;51.046;6.772;2022-12-01T11:51:28;7.90;99.90
5508;DHT22;2776;51.046;6.772;2022-12-01T11:54:12;7.70;99.90
5508;DHT22;2776;51.046;6.772;2022-12-01T11:56:40;7.80;99.90
5508;DHT22;2776;51.046;6.772;2022-12-01T11:59:11;7.80;99.90
5508;DHT22;2776;51.046;6.772;2022-12-01T12:01:46;7.90;99.90
5508;DHT22;2776;51.046;6.772;2022-12-01T12:04:25;7.90;99.90
5508;DHT22;2776;51.046;6.772;2022-12-01T12:07:01;7.90;99.90
5508;DHT22;2776;51.046;6.772;2022-12-01T12:09:42;7.80;99.90
5508;DHT22;2776;51.046;6.772;2022-12-01T12:15:07;7.80;99.90
5508;DHT22;2776;51.046;6.772;2022-12-01T12:17:48;7.80;99.90
5508;DHT22;2776;51.046;6.772;2022-12-01T12:20:44;7.80;99.90
5508;DHT22;2776;51.046;6.772;2022-12-01T12:23:24;7.80;99.90
5508;DHT22;2776;51.046;6.772;2022-12-01T12:26:02;7.80;99.90
5508;DHT22;2776;51.046;6.772;2022-12-01T12:28:43;7.70;99.90
5508;DHT22;2776;51.046;6.772;2022-12-01T12:31:21;7.70;99.90
5508;DHT22;2776;51.046;6.772;2022-12-01T12:34:03;7.70;99.90
5508;DHT22;2776;51.046;6.772;2022-12-01T12:36:41;7.70;99.90
5508;DHT22;2776;51.046;6.772;2022-12-01T12:39:23;7.80;99.90
5508;DHT22;2776;51.046;6.772;2022-12-01T12:41:54;7.80;99.90
5508;DHT22;2776;51.046;6.772;2022-12-01T12:44:44;7.80;99.90
5508;DHT22;2776;51.046;6.772;2022-12-01T12:47:21;7.80;99.90
5508;DHT22;2776;51.046;6.772;2022-12-01T12:49:57;7.80;99.90
5508;DHT22;2776;51.046;6.772;2022-12-01T12:52:31;7.90;99.90
5508;DHT22;2776;51.046;6.772;2022-12-01T12:55:03;7.90;99.90
5508;DHT22;2776;51.046;6.772;2022-12-01T12:57:39;7.90;99.90
5508;DHT22;2776;51.046;6.772;2022-12-01T13:00:13;7.90;99.90
5508;DHT22;2776;51.046;6.772;2022-12-01T13:02:42;8.00;99.90
5508;DHT22;2776;51.046;6.772;2022-12-01T13:05:17;7.90;99.90
5508;DHT22;2776;51.046;6.772;2022-12-01T13:07:49;7.90;99.90
5508;DHT22;2776;51.046;6.772;2022-12-01T13:10:24;7.80;99.90
5508;DHT22;2776;51.046;6.772;2022-12-01T13:12:56;7.80;99.90
5508;DHT22;2776;51.046;6.772;2022-12-01T13:15:24;7.80;99.90
5508;DHT22;2776;51.046;6.772;2022-12-01T13:17:54;7.80;99.90
5508;DHT22;2776;51.046;6.772;2022-12-01T13:20:24;7.80;99.90
5508;DHT22;2776;51.046;6.772;2022-12-01T13:22:54;7.80;99.90
5508;DHT22;2776;51.046;6.772;2022-12-01T13:25:26;7.80;99.90
5508;DHT22;2776;51.046;6.772;2022-12-01T13:27:54;7.80;99.90
5508;DHT22;2776;51.046;6.772;2022-12-01T13:30:23;7.70;99.90
5508;DHT22;2776;51.046;6.772;2022-12-01T13:32:58;7.60;99.90
5508;DHT22;2776;51.046;6.772;2022-12-01T13:35:28;7.60;99.90
5508;DHT22;2776;51.046;6.772;2022-12-01T13:38:20;7.50;99.90
5508;DHT22;2776;51.046;6.772;2022-12-01T13:40:47;7.50;99.90
5508;DHT22;2776;51.046;6.772;2022-12-01T13:43:17;7.50;99.90
5508;DHT22;2776;51.046;6.772;2022-12-01T13:45:45;7.40;99.90
5508;DHT22;2776;51.046;6.772;2022-12-01T13:48:28;7.40;99.90
5508;DHT22;2776;51.046;6.772;2022-12-01T13:50:57;7.40;99.90
5508;DHT22;2776;51.046;6.772;2022-12-01T13:53:28;7.50;99.90
5508;DHT22;2776;51.046;6.772;2022-12-01T13:56:04;7.50;99.90
5508;DHT22;2776;51.046;6.772;2022-12-01T13:58:45;7.60;99.90
5508;DHT22;2776;51.046;6.772;2022-12-01T14:01:44;7.60;99.90
5508;DHT22;2776;51.046;6.772;2022-12-01T14:04:32;7.60;99.90
5508;DHT22;2776;51.046;6.772;2022-12-01T14:07:26;7.60;99.90
5508;DHT22;2776;51.046;6.772;2022-12-01T14:10:05;7.50;99.90
5508;DHT22;2776;51.046;6.772;2022-12-01T14:12:33;7.60;99.90
5508;DHT22;2776;51.046;6.772;2022-12-01T14:15:15;7.60;99.90
5508;DHT22;2776;51.046;6.772;2022-12-01T14:17:46;7.60;99.90
5508;DHT22;2776;51.046;6.772;2022-12-01T14:20:19;7.50;99.90
5508;DHT22;2776;51.046;6.772;2022-12-01T14:23:02;7.50;99.90
5508;DHT22;2776;51.046;6.772;2022-12-01T14:25:30;7.50;99.90
5508;DHT22;2776;51.046;6.772;2022-12-01T14:27:58;7.50;99.90
5508;DHT22;2776;51.046;6.772;2022-12-01T14:30:58;7.50;99.90
5508;DHT22;2776;51.046;6.772;2022-12-01T14:33:49;7.60;99.90
5508;DHT22;2776;51.046;6.772;2022-12-01T14:36:29;7.50;99.90
5508;DHT22;2776;51.046;6.772;2022-12-01T14:39:02;7.50;99.90
5508;DHT22;2776;51.046;6.772;2022-12-01T14:41:40;7.40;99.90
5508;DHT22;2776;51.046;6.772;2022-12-01T14:44:16;7.40;99.90
5508;DHT22;2776;51.046;6.772;2022-12-01T14:46:48;7.40;99.90
5508;DHT22;2776;51.046;6.772;2022-12-01T14:49:19;7.30;99.90
5508;DHT22;2776;51.046;6.772;2022-12-01T14:51:50;7.40;99.90
5508;DHT22;2776;51.046;6.772;2022-12-01T14:54:22;7.40;99.90
5508;DHT22;2776;51.046;6.772;2022-12-01T14:56:54;7.40;99.90
5508;DHT22;2776;51.046;6.772;2022-12-01T14:59:22;7.40;99.90
5508;DHT22;2776;51.046;6.772;2022-12-01T15:01:52;7.40;99.90
5508;DHT22;2776;51.046;6.772;2022-12-01T15:04:20;7.40;99.90
5508;DHT22;2776;51.046;6.772;2022-12-01T15:06:53;7.40;99.90
5508;DHT22;2776;51.046;6.772;2022-12-01T15:09:20;7.30;99.90
5508;DHT22;2776;51.046;6.772;2022-12-01T15:11:50;7.30;99.90
5508;DHT22;2776;51.046;6.772;2022-12-01T15:14:31;7.30;99.90
5508;DHT22;2776;51.046;6.772;2022-12-01T15:16:58;7.30;99.90
5508;DHT22;2776;51.046;6.772;2022-12-01T15:19:32;7.20;99.90
5508;DHT22;2776;51.046;6.772;2022-12-01T15:22:04;7.20;99.90
5508;DHT22;2776;51.046;6.772;2022-12-01T15:24:32;7.20;99.90
5508;DHT22;2776;51.046;6.772;2022-12-01T15:26:59;7.20;99.90
5508;DHT22;2776;51.046;6.772;2022-12-01T15:29:30;7.20;99.90
5508;DHT22;2776;51.046;6.772;2022-12-01T15:31:59;7.20;99.90
5508;DHT22;2776;51.046;6.772;2022-12-01T15:34:30;7.20;99.90
5508;DHT22;2776;51.046;6.772;2022-12-01T15:36:59;7.20;99.90
5508;DHT22;2776;51.046;6.772;2022-12-01T15:39:31;7.20;99.90
5508;DHT22;2776;51.046;6.772;2022-12-01T15:41:59;7.30;99.90
5508;DHT22;2776;51.046;6.772;2022-12-01T15:44:30;7.20;99.90
5508;DHT22;2776;51.046;6.772;2022-12-01T15:46:57;7.20;99.90
5508;DHT22;2776;51.046;6.772;2022-12-01T15:49:26;7.20;99.90
5508;DHT22;2776;51.046;6.772;2022-12-01T15:52:02;7.30;99.90
5508;DHT22;2776;51.046;6.772;2022-12-01T15:54:30;7.30;99.90
5508;DHT22;2776;51.046;6.772;2022-12-01T15:56:58;7.20;99.90
5508;DHT22;2776;51.046;6.772;2022-12-01T15:59:34;7.20;99.90
5508;DHT22;2776;51.046;6.772;2022-12-01T16:02:06;7.30;99.90
5508;DHT22;2776;51.046;6.772;2022-12-01T16:04:40;7.20;99.90
5508;DHT22;2776;51.046;6.772;2022-12-01T16:07:09;7.20;99.90
5508;DHT22;2776;51.046;6.772;2022-12-01T16:09:37;7.20;99.90
5508;DHT22;2776;51.046;6.772;2022-12-01T16:14:51;7.20;99.90
5508;DHT22;2776;51.046;6.772;2022-12-01T16:17:19;7.20;99.90
5508;DHT22;2776;51.046;6.772;2022-12-01T16:19:46;7.20;99.90
5508;DHT22;2776;51.046;6.772;2022-12-01T16:22:15;7.10;99.90
5508;DHT22;2776;51.046;6.772;2022-12-01T16:24:45;7.10;99.90
5508;DHT22;2776;51.046;6.772;2022-12-01T16:27:18;7.00;99.90
5508;DHT22;2776;51.046;6.772;2022-12-01T16:29:50;7.00;99.90
5508;DHT22;2776;51.046;6.772;2022-12-01T16:32:19;7.00;99.90
5508;DHT22;2776;51.046;6.772;2022-12-01T16:34:46;6.90;99.90
5508;DHT22;2776;51.046;6.772;2022-12-01T16:37:13;6.90;99.90
5508;DHT22;2776;51.046;6.772;2022-12-01T16:39:40;6.90;99.90
5508;DHT22;2776;51.046;6.772;2022-12-01T16:42:11;6.90;99.90
5508;DHT22;2776;51.046;6.772;2022-12-01T16:44:39;6.80;99.90
5508;DHT22;2776;51.046;6.772;2022-12-01T16:47:12;6.80;99.90